Time,TemperatureF,DewpointF,PressureIn,WindDirection,WindDirectionDegrees,WindSpeedMPH,WindSpeedGustMPH,Humidity,HourlyPrecipIn,Conditions,Clouds,dailyrainin,SolarRadiationWatts/m^2,SoftwareType,DateUTC
2013-01-17 00:12:00,33.0,17.0,-100.00,West,275,5.0,8.0,52,0.00,,,0.00,0.000000,,2013-01-17 06:12:00,
2013-01-17 00:22:00,33.0,17.0,-100.00,West,275,5.0,8.0,52,0.00,,,0.00,0.000000,,2013-01-17 06:22:00,
2013-01-17 00:32:00,33.0,17.0,-100.00,West,275,5.0,8.0,52,0.00,,,0.00,0.000000,,2013-01-17 06:32:00,
2013-01-17 00:42:00,33.0,17.0,-100.00,West,275,5.0,8.0,52,0.00,,,0.00,0.000000,,2013-01-17 06:42:00,
2013-01-17 00:52:00,33.0,17.0,-100.00,West,275,5.0,8.0,52,0.00,,,0.00,0.000000,,2013-01-17 06:52:00,
2013-01-17 01:12:00,33.0,17.0,-100.00,West,267,7.0,13.0,51,0.00,,,0.00,0.000000,,2013-01-17 07:12:00,
2013-01-17 01:22:00,33.0,17.0,-100.00,West,267,7.0,13.0,51,0.00,,,0.00,0.000000,,2013-01-17 07:22:00,
2013-01-17 01:32:00,33.0,17.0,-100.00,West,267,7.0,13.0,51,0.00,,,0.00,0.000000,,2013-01-17 07:32:00,
2013-01-17 01:42:00,33.0,17.0,-100.00,West,267,7.0,13.0,51,0.00,,,0.00,0.000000,,2013-01-17 07:42:00,
2013-01-17 01:52:00,33.0,17.0,-100.00,West,267,7.0,13.0,51,0.00,,,0.00,0.000000,,2013-01-17 07:52:00,
2013-01-17 02:12:00,32.0,19.0,-100.00,WNW,285,7.0,12.0,57,0.00,,,0.00,0.000000,,2013-01-17 08:12:00,
2013-01-17 02:22:00,32.0,19.0,-100.00,WNW,285,7.0,12.0,57,0.00,,,0.00,0.000000,,2013-01-17 08:22:00,
2013-01-17 02:32:00,32.0,19.0,-100.00,WNW,285,7.0,12.0,57,0.00,,,0.00,0.000000,,2013-01-17 08:32:00,
2013-01-17 02:43:00,32.0,19.0,-100.00,WNW,285,7.0,12.0,57,0.00,,,0.00,0.000000,,2013-01-17 08:43:00,
2013-01-17 02:52:00,32.0,19.0,-100.00,WNW,285,7.0,12.0,57,0.00,,,0.00,0.000000,,2013-01-17 08:52:00,
2013-01-17 03:12:00,34.0,19.0,-100.00,NW,318,5.0,13.0,53,0.00,,,0.00,0.000000,,2013-01-17 09:12:00,
2013-01-17 03:22:00,34.0,19.0,-100.00,NW,318,5.0,13.0,53,0.00,,,0.00,0.000000,,2013-01-17 09:22:00,
2013-01-17 03:32:00,34.0,19.0,-100.00,NW,318,5.0,13.0,53,0.00,,,0.00,0.000000,,2013-01-17 09:32:00,
2013-01-17 03:42:00,34.0,19.0,-100.00,NW,318,5.0,13.0,53,0.00,,,0.00,0.000000,,2013-01-17 09:42:00,
2013-01-17 03:52:00,34.0,19.0,-100.00,NW,318,5.0,13.0,53,0.00,,,0.00,0.000000,,2013-01-17 09:52:00,
2013-01-17 04:12:00,34.0,19.0,-100.00,WNW,294,5.0,9.0,54,0.00,,,0.00,0.000000,,2013-01-17 10:12:00,
2013-01-17 04:22:00,34.0,19.0,-100.00,WNW,294,5.0,9.0,54,0.00,,,0.00,0.000000,,2013-01-17 10:22:00,
2013-01-17 04:32:00,34.0,19.0,-100.00,WNW,294,5.0,9.0,54,0.00,,,0.00,0.000000,,2013-01-17 10:32:00,
2013-01-17 04:42:00,34.0,19.0,-100.00,WNW,294,5.0,9.0,54,0.00,,,0.00,0.000000,,2013-01-17 10:42:00,
2013-01-17 04:52:00,34.0,19.0,-100.00,WNW,294,5.0,9.0,54,0.00,,,0.00,0.000000,,2013-01-17 10:52:00,
2013-01-17 05:12:00,33.0,19.0,-100.00,WNW,302,7.0,13.0,56,0.00,,,0.00,0.000000,,2013-01-17 11:12:00,
2013-01-17 05:22:00,33.0,19.0,-100.00,WNW,302,7.0,13.0,56,0.00,,,0.00,0.000000,,2013-01-17 11:22:00,
2013-01-17 05:33:00,33.0,19.0,-100.00,WNW,302,7.0,13.0,56,0.00,,,0.00,0.000000,,2013-01-17 11:33:00,
2013-01-17 05:42:00,33.0,19.0,-100.00,WNW,302,7.0,13.0,56,0.00,,,0.00,0.000000,,2013-01-17 11:42:00,
2013-01-17 05:52:00,33.0,19.0,-100.00,WNW,302,7.0,13.0,56,0.00,,,0.00,0.000000,,2013-01-17 11:52:00,
2013-01-17 06:12:00,32.0,20.0,-100.00,NW,310,4.0,12.0,62,0.00,,,-99.99,0.000000,,2013-01-17 12:12:00,
2013-01-17 06:23:00,32.0,20.0,-100.00,NW,310,4.0,12.0,62,0.00,,,-99.99,0.000000,,2013-01-17 12:23:00,
2013-01-17 06:33:00,32.0,20.0,-100.00,NW,310,4.0,12.0,62,0.00,,,-99.99,0.000000,,2013-01-17 12:33:00,
2013-01-17 06:42:00,32.0,20.0,-100.00,NW,310,4.0,12.0,62,0.00,,,-99.99,0.000000,,2013-01-17 12:42:00,
2013-01-17 06:52:00,32.0,20.0,-100.00,NW,310,4.0,12.0,62,0.00,,,-99.99,0.000000,,2013-01-17 12:52:00,
2013-01-17 07:12:00,31.0,23.0,-100.00,NNW,327,6.0,12.0,73,0.00,,,0.00,0.000000,,2013-01-17 13:12:00,
2013-01-17 07:23:00,31.0,23.0,-100.00,NNW,327,6.0,12.0,73,0.00,,,0.00,0.000000,,2013-01-17 13:23:00,
2013-01-17 07:33:00,31.0,23.0,-100.00,NNW,327,6.0,12.0,73,0.00,,,0.00,0.000000,,2013-01-17 13:33:00,
2013-01-17 07:43:00,31.0,23.0,-100.00,NNW,327,6.0,12.0,73,0.00,,,0.00,0.000000,,2013-01-17 13:43:00,
2013-01-17 07:52:00,31.0,23.0,-100.00,NNW,327,6.0,12.0,73,0.00,,,0.00,0.000000,,2013-01-17 13:52:00,
2013-01-17 07:53:00,30.0,25.0,-100.00,NNW,346,7.0,13.0,81,0.00,,,0.00,8.000000,,2013-01-17 13:53:00,
2013-01-17 08:12:00,30.0,25.0,-100.00,NNW,346,7.0,13.0,81,0.00,,,0.00,8.000000,,2013-01-17 14:12:00,
2013-01-17 08:23:00,30.0,25.0,-100.00,NNW,346,7.0,13.0,81,0.00,,,0.00,8.000000,,2013-01-17 14:23:00,
2013-01-17 08:33:00,30.0,25.0,-100.00,NNW,346,7.0,13.0,81,0.00,,,0.00,8.000000,,2013-01-17 14:33:00,
2013-01-17 08:43:00,30.0,25.0,-100.00,NNW,346,7.0,13.0,81,0.00,,,0.00,8.000000,,2013-01-17 14:43:00,
2013-01-17 08:53:00,34.0,28.0,-100.00,NNW,341,6.0,12.0,79,0.00,,,0.00,153.000000,,2013-01-17 14:53:00,
2013-01-17 09:23:00,34.0,28.0,-100.00,NNW,341,6.0,12.0,79,0.00,,,0.00,153.000000,,2013-01-17 15:23:00,
2013-01-17 09:33:00,34.0,28.0,-100.00,NNW,341,6.0,12.0,79,0.00,,,0.00,153.000000,,2013-01-17 15:33:00,
2013-01-17 09:43:00,34.0,28.0,-100.00,NNW,341,6.0,12.0,79,0.00,,,0.00,153.000000,,2013-01-17 15:43:00,
2013-01-17 10:12:00,35.0,31.0,-100.00,North,357,6.0,13.0,86,0.00,,,0.00,295.000000,,2013-01-17 16:12:00,
2013-01-17 10:23:00,35.0,31.0,-100.00,North,357,6.0,13.0,86,0.00,,,0.00,295.000000,,2013-01-17 16:23:00,
2013-01-17 10:33:00,35.0,31.0,-100.00,North,357,6.0,13.0,86,0.00,,,0.00,295.000000,,2013-01-17 16:33:00,
2013-01-17 10:43:00,35.0,31.0,-100.00,North,357,6.0,13.0,86,0.00,,,0.00,295.000000,,2013-01-17 16:43:00,
2013-01-17 10:52:00,35.0,31.0,-100.00,North,357,6.0,13.0,86,0.00,,,0.00,295.000000,,2013-01-17 16:52:00,
2013-01-17 10:53:00,37.0,33.0,-100.00,North,353,5.0,12.0,84,0.00,,,0.00,196.000000,,2013-01-17 16:53:00,
2013-01-17 11:13:00,37.0,33.0,-100.00,North,353,5.0,12.0,84,0.00,,,0.00,196.000000,,2013-01-17 17:13:00,
2013-01-17 11:23:00,37.0,33.0,-100.00,North,353,5.0,12.0,84,0.00,,,0.00,196.000000,,2013-01-17 17:23:00,
2013-01-17 11:33:00,37.0,33.0,-100.00,North,353,5.0,12.0,84,0.00,,,0.00,196.000000,,2013-01-17 17:33:00,
2013-01-17 11:43:00,37.0,33.0,-100.00,North,353,5.0,12.0,84,0.00,,,0.00,196.000000,,2013-01-17 17:43:00,
2013-01-17 11:53:00,40.0,33.0,-100.00,NNW,344,6.0,13.0,75,0.00,,,0.00,284.000000,,2013-01-17 17:53:00,
2013-01-17 12:12:00,40.0,33.0,-100.00,NNW,344,6.0,13.0,75,0.00,,,0.00,284.000000,,2013-01-17 18:12:00,
2013-01-17 12:22:00,40.0,33.0,-100.00,NNW,344,6.0,13.0,75,0.00,,,0.00,284.000000,,2013-01-17 18:22:00,
2013-01-17 12:33:00,40.0,33.0,-100.00,NNW,344,6.0,13.0,75,0.00,,,0.00,284.000000,,2013-01-17 18:33:00,
2013-01-17 12:43:00,40.0,33.0,-100.00,NNW,344,6.0,13.0,75,0.00,,,0.00,284.000000,,2013-01-17 18:43:00,
2013-01-17 12:53:00,41.0,31.0,-100.00,North,350,5.0,12.0,66,0.00,,,0.00,196.000000,,2013-01-17 18:53:00,
2013-01-17 13:12:00,41.0,31.0,-100.00,North,350,5.0,12.0,66,0.00,,,0.00,196.000000,,2013-01-17 19:12:00,
2013-01-17 13:23:00,41.0,31.0,-100.00,North,350,5.0,12.0,66,0.00,,,0.00,196.000000,,2013-01-17 19:23:00,
2013-01-17 13:33:00,41.0,31.0,-100.00,North,350,5.0,12.0,66,0.00,,,0.00,196.000000,,2013-01-17 19:33:00,
2013-01-17 13:43:00,41.0,31.0,-100.00,North,350,5.0,12.0,66,0.00,,,0.00,196.000000,,2013-01-17 19:43:00,
2013-01-17 13:53:00,42.0,29.0,-100.00,NW,326,6.0,14.0,59,0.00,,,0.00,492.000000,,2013-01-17 19:53:00,
2013-01-17 14:23:00,42.0,29.0,-100.00,NW,326,6.0,14.0,59,0.00,,,0.00,492.000000,,2013-01-17 20:23:00,
2013-01-17 14:33:00,42.0,29.0,-100.00,NW,326,6.0,14.0,59,0.00,,,0.00,492.000000,,2013-01-17 20:33:00,
2013-01-17 14:43:00,42.0,29.0,-100.00,NW,326,6.0,14.0,59,0.00,,,0.00,492.000000,,2013-01-17 20:43:00,
2013-01-17 15:23:00,44.0,28.0,-100.00,NW,316,5.0,14.0,52,0.00,,,0.00,532.000000,,2013-01-17 21:23:00,
2013-01-17 15:33:00,44.0,28.0,-100.00,NW,316,5.0,14.0,52,0.00,,,0.00,532.000000,,2013-01-17 21:33:00,
2013-01-17 15:43:00,44.0,28.0,-100.00,NW,316,5.0,14.0,52,0.00,,,0.00,532.000000,,2013-01-17 21:43:00,
2013-01-17 15:52:00,44.0,28.0,-100.00,NW,316,5.0,14.0,52,0.00,,,0.00,532.000000,,2013-01-17 21:52:00,
2013-01-17 16:12:00,47.0,28.0,-100.00,NNW,329,3.0,12.0,47,0.00,,,0.00,380.000000,,2013-01-17 22:12:00,
2013-01-17 16:23:00,47.0,28.0,-100.00,NNW,329,3.0,12.0,47,0.00,,,0.00,380.000000,,2013-01-17 22:23:00,
2013-01-17 16:33:00,47.0,28.0,-100.00,NNW,329,3.0,12.0,47,0.00,,,0.00,380.000000,,2013-01-17 22:33:00,
2013-01-17 16:43:00,47.0,28.0,-100.00,NNW,329,3.0,12.0,47,0.00,,,0.00,380.000000,,2013-01-17 22:43:00,
2013-01-17 16:52:00,47.0,28.0,-100.00,NNW,329,3.0,12.0,47,0.00,,,0.00,380.000000,,2013-01-17 22:52:00,
2013-01-17 17:12:00,44.0,25.0,-100.00,WNW,301,5.0,11.0,47,0.00,,,0.00,190.000000,,2013-01-17 23:12:00,
2013-01-17 17:22:00,44.0,25.0,-100.00,WNW,301,5.0,11.0,47,0.00,,,0.00,190.000000,,2013-01-17 23:22:00,
2013-01-17 17:33:00,44.0,25.0,-100.00,WNW,301,5.0,11.0,47,0.00,,,0.00,190.000000,,2013-01-17 23:33:00,
2013-01-17 17:43:00,44.0,25.0,-100.00,WNW,301,5.0,11.0,47,0.00,,,0.00,190.000000,,2013-01-17 23:43:00,
2013-01-17 17:52:00,44.0,25.0,-100.00,WNW,301,5.0,11.0,47,0.00,,,0.00,190.000000,,2013-01-17 23:52:00,
2013-01-17 18:23:00,40.0,24.0,-100.00,NW,320,5.0,12.0,52,0.00,,,0.00,17.000000,,2013-01-18 00:23:00,
2013-01-17 18:32:00,40.0,24.0,-100.00,NW,320,5.0,12.0,52,0.00,,,0.00,17.000000,,2013-01-18 00:32:00,
2013-01-17 18:42:00,40.0,24.0,-100.00,NW,320,5.0,12.0,52,0.00,,,0.00,17.000000,,2013-01-18 00:42:00,
2013-01-17 18:52:00,40.0,24.0,-100.00,NW,320,5.0,12.0,52,0.00,,,0.00,17.000000,,2013-01-18 00:52:00,
2013-01-17 19:12:00,38.0,23.0,-100.00,NNW,327,4.0,10.0,55,0.00,,,0.00,0.000000,,2013-01-18 01:12:00,
2013-01-17 19:23:00,38.0,23.0,-100.00,NNW,327,4.0,10.0,55,0.00,,,0.00,0.000000,,2013-01-18 01:23:00,
2013-01-17 19:33:00,38.0,23.0,-100.00,NNW,327,4.0,10.0,55,0.00,,,0.00,0.000000,,2013-01-18 01:33:00,
2013-01-17 19:43:00,38.0,23.0,-100.00,NNW,327,4.0,10.0,55,0.00,,,0.00,0.000000,,2013-01-18 01:43:00,
2013-01-17 19:52:00,38.0,23.0,-100.00,NNW,327,4.0,10.0,55,0.00,,,0.00,0.000000,,2013-01-18 01:52:00,
2013-01-17 20:12:00,37.0,24.0,-100.00,WNW,290,3.0,7.0,58,0.00,,,0.00,0.000000,,2013-01-18 02:12:00,
2013-01-17 20:22:00,37.0,24.0,-100.00,WNW,290,3.0,7.0,58,0.00,,,0.00,0.000000,,2013-01-18 02:22:00,
2013-01-17 20:32:00,37.0,24.0,-100.00,WNW,290,3.0,7.0,58,0.00,,,0.00,0.000000,,2013-01-18 02:32:00,
2013-01-17 20:42:00,37.0,24.0,-100.00,WNW,290,3.0,7.0,58,0.00,,,0.00,0.000000,,2013-01-18 02:42:00,
2013-01-17 20:52:00,37.0,24.0,-100.00,WNW,290,3.0,7.0,58,0.00,,,0.00,0.000000,,2013-01-18 02:52:00,
2013-01-17 21:23:00,35.0,24.0,-100.00,NNW,342,2.0,4.0,64,0.00,,,0.00,0.000000,,2013-01-18 03:23:00,
2013-01-17 21:33:00,35.0,24.0,-100.00,NNW,342,2.0,4.0,64,0.00,,,0.00,0.000000,,2013-01-18 03:33:00,
2013-01-17 21:42:00,35.0,24.0,-100.00,NNW,342,2.0,4.0,64,0.00,,,0.00,0.000000,,2013-01-18 03:42:00,
2013-01-17 21:52:00,35.0,24.0,-100.00,NNW,342,2.0,4.0,64,0.00,,,0.00,0.000000,,2013-01-18 03:52:00,
2013-01-17 22:12:00,35.0,24.0,-100.00,North,0,2.0,3.0,64,0.00,,,0.00,0.000000,,2013-01-18 04:12:00,
2013-01-17 22:22:00,35.0,24.0,-100.00,North,0,2.0,3.0,64,0.00,,,0.00,0.000000,,2013-01-18 04:22:00,
2013-01-17 22:33:00,35.0,24.0,-100.00,North,0,2.0,3.0,64,0.00,,,0.00,0.000000,,2013-01-18 04:33:00,
2013-01-17 22:42:00,35.0,24.0,-100.00,North,0,2.0,3.0,64,0.00,,,0.00,0.000000,,2013-01-18 04:42:00,
2013-01-17 22:52:00,35.0,24.0,-100.00,North,0,2.0,3.0,64,0.00,,,0.00,0.000000,,2013-01-18 04:52:00,
2013-01-17 23:12:00,35.0,24.0,-100.00,NNW,331,1.0,3.0,64,0.00,,,0.00,0.000000,,2013-01-18 05:12:00,
2013-01-17 23:22:00,35.0,24.0,-100.00,NNW,331,1.0,3.0,64,0.00,,,0.00,0.000000,,2013-01-18 05:22:00,
2013-01-17 23:33:00,35.0,24.0,-100.00,NNW,331,1.0,3.0,64,0.00,,,0.00,0.000000,,2013-01-18 05:33:00,
2013-01-17 23:42:00,35.0,24.0,-100.00,NNW,331,1.0,3.0,64,0.00,,,0.00,0.000000,,2013-01-18 05:42:00,
2013-01-17 23:52:00,35.0,24.0,-100.00,NNW,331,1.0,3.0,64,0.00,,,0.00,0.000000,,2013-01-18 05:52:00,